logo
Search for airport 
image banner adimage banner adimage banner ad
image banner ad

MRFL - Florencia

Located in San Carlos, Costa Rica

ICAO - MRFL, IATA - FMG

Data provided by Airmate  

General information

Coordinates: N10°22'54" W84°29'21"
Elevation is 270 feet MSL.
 
View others Airports in Guanacaste

Operational data

Special qualification required
Current time UTC:
Current local time:
Weather at : MROC - Juan Santamaria Intl ( 53 km )
TAF: MROC 151755Z 1518/1618 10008KT 9999 SCT040 TX30/1618Z TN21/1611Z TEMPO 1520/1524 25006KT RA
View NOTAMs / SUP AIP / TFR affecting this airport [VIEW]
Communications frequencies: [VIEW]

Runways:

RWY identifierQFULength (ft)Width (ft)SurfaceLDA (ft)
0500UNK
2300UNK

Airport contact information

Address: San Carlos Costa Rica

Satellite view of MRFL